Time;durP1;ratioP1;P1;durP2;ratioP2;P2;SDS_P1;SDS_P2;PMS_P1;PMS_P2;Temp;Humidity;BMP_temperature;BMP_pressure;BME280_temperature;BME280_humidity;BME280_pressure;Samples;Min_cycle;Max_cycle;Signal;HPM_P1;HPM_P2
2022/02/14 00:00:19;;;;;;;3.75;2.20;;;;;;;12.90;47.96;99985.03;4987644;28;113185;-63
2022/02/14 00:02:47;;;;;;;4.68;2.22;;;;;;;12.93;47.99;99980.34;4971194;28;114304;-63
2022/02/14 00:05:15;;;;;;;4.35;2.28;;;;;;;12.98;47.78;99983.56;4970890;28;124756;-63
2022/02/14 00:07:42;;;;;;;5.25;2.17;;;;;;;13.03;47.80;99981.44;4971722;28;123822;-63
2022/02/14 00:10:10;;;;;;;5.97;2.08;;;;;;;13.06;47.67;99980.38;4984070;28;114178;-63
2022/02/14 00:12:42;;;;;;;6.38;2.00;;;;;;;13.10;47.77;99983.66;4987530;28;113059;-63
2022/02/14 00:15:11;;;;;;;5.15;2.25;;;;;;;13.13;47.93;99978.13;4969308;28;124292;-63
2022/02/14 00:17:38;;;;;;;7.47;2.20;;;;;;;13.14;47.69;99982.50;4971064;28;124340;-63
2022/02/14 00:20:06;;;;;;;4.40;2.15;;;;;;;13.15;47.83;99978.88;4985575;28;114573;-63
2022/02/14 00:22:34;;;;;;;4.97;2.20;;;;;;;13.16;47.57;99980.56;4970184;28;113695;-63
2022/02/14 00:25:02;;;;;;;5.03;2.10;;;;;;;13.16;47.72;99969.94;4969822;28;125134;-63
2022/02/14 00:27:29;;;;;;;6.78;2.22;;;;;;;13.17;47.68;99969.00;4970175;28;124670;-64
2022/02/14 00:29:56;;;;;;;6.22;2.17;;;;;;;13.18;47.86;99965.34;4968525;28;115467;-63
2022/02/14 00:32:24;;;;;;;4.50;2.00;;;;;;;13.20;47.71;99966.09;4971120;28;115196;-64
2022/02/14 00:34:52;;;;;;;4.88;2.25;;;;;;;13.22;47.84;99948.22;4969122;28;124654;-63
2022/02/14 00:37:19;;;;;;;4.75;2.10;;;;;;;13.23;47.89;99949.94;4969207;28;123791;-63
2022/02/14 00:39:47;;;;;;;5.47;2.10;;;;;;;13.23;47.77;99955.25;4984663;28;114616;-63
2022/02/14 00:42:15;;;;;;;5.18;2.00;;;;;;;13.25;47.83;99942.72;4970007;28;114023;-63
2022/02/14 00:44:42;;;;;;;5.82;2.20;;;;;;;13.28;47.86;99937.19;4984444;28;124780;-63
2022/02/14 00:47:09;;;;;;;4.57;2.00;;;;;;;13.32;47.90;99932.53;4987203;28;123746;-63
2022/02/14 00:49:36;;;;;;;6.10;2.13;;;;;;;13.34;47.81;99926.13;4969421;28;114421;-64
2022/02/14 00:52:04;;;;;;;5.60;2.40;;;;;;;13.39;47.93;99928.44;4969501;28;114643;-63
2022/02/14 00:54:31;;;;;;;4.38;1.75;;;;;;;13.41;47.88;99919.41;4969121;28;124062;-63
2022/02/14 00:56:59;;;;;;;5.65;1.75;;;;;;;13.45;47.81;99912.06;4968935;28;124556;-64
2022/02/14 00:59:27;;;;;;;7.47;2.10;;;;;;;13.50;47.81;99914.38;4969274;28;114438;-63
2022/02/14 01:01:54;;;;;;;4.45;1.73;;;;;;;13.52;47.73;99902.66;4970795;28;114445;-63
2022/02/14 01:04:21;;;;;;;4.40;1.77;;;;;;;13.56;47.74;99908.63;4986475;28;123589;-63
2022/02/14 01:06:49;;;;;;;4.45;1.77;;;;;;;13.59;47.78;99903.09;4968899;28;124346;-64
2022/02/14 01:09:16;;;;;;;5.20;1.67;;;;;;;13.62;47.85;99902.88;4968937;28;114021;-63
2022/02/14 01:11:43;;;;;;;4.50;1.80;;;;;;;13.65;47.71;99913.28;4970120;28;113857;-63
2022/02/14 01:14:14;;;;;;;4.10;1.70;;;;;;;13.69;47.87;99896.09;4985341;28;124019;-64
2022/02/14 01:16:41;;;;;;;5.40;1.95;;;;;;;13.71;47.74;99886.22;4971165;28;123775;-63
2022/02/14 01:19:08;;;;;;;4.20;1.85;;;;;;;13.74;47.57;99880.66;4968352;28;115143;-63
2022/02/14 01:21:35;;;;;;;4.65;1.63;;;;;;;13.77;47.56;99885.78;4967829;28;115248;-63
2022/02/14 01:24:03;;;;;;;4.07;1.70;;;;;;;13.79;47.61;99878.53;4971211;28;123885;-64
2022/02/14 01:26:30;;;;;;;3.63;1.48;;;;;;;13.81;47.53;99871.28;4970543;28;123271;-63
2022/02/14 01:28:57;;;;;;;5.60;1.80;;;;;;;13.83;47.58;99880.00;4970910;28;114146;-63
2022/02/14 01:31:25;;;;;;;3.47;1.67;;;;;;;13.85;47.52;99868.41;4970836;28;113995;-63
2022/02/14 01:33:52;;;;;;;4.57;1.80;;;;;;;13.88;47.62;99865.47;4986004;28;123876;-63
2022/02/14 01:36:19;;;;;;;4.72;1.30;;;;;;;13.91;47.51;99865.25;4969719;28;124005;-63
2022/02/14 01:38:46;;;;;;;4.50;1.92;;;;;;;13.91;47.55;99855.47;4970546;28;115374;-63
2022/02/14 01:41:13;;;;;;;3.60;1.50;;;;;;;13.94;47.50;99846.41;4967683;28;114031;-64
2022/02/14 01:43:43;;;;;;;7.15;2.00;;;;;;;13.95;47.36;99845.44;4985610;28;122902;-63
2022/02/14 01:46:11;;;;;;;4.55;1.50;;;;;;;13.95;47.41;99840.09;4971074;28;124758;-63
2022/02/14 01:48:38;;;;;;;6.03;1.70;;;;;;;13.96;47.31;99831.16;4983931;28;114341;-63
2022/02/14 01:51:06;;;;;;;3.38;1.65;;;;;;;13.95;47.31;99829.47;4967766;28;114539;-63
2022/02/14 01:53:34;;;;;;;4.07;1.80;;;;;;;13.92;47.19;99829.69;4970540;28;124158;-63
2022/02/14 01:56:03;;;;;;;4.10;1.83;;;;;;;13.89;47.19;99825.44;4968180;28;123536;-64
2022/02/14 01:58:30;;;;;;;3.88;1.52;;;;;;;13.86;47.30;99807.03;4968407;28;114136;-63
2022/02/14 02:00:57;;;;;;;4.50;1.63;;;;;;;13.82;47.31;99809.09;4971057;28;114276;-63
2022/02/14 02:03:25;;;;;;;2.72;1.50;;;;;;;13.80;47.36;99800.34;4970194;28;123895;-63
2022/02/14 02:05:54;;;;;;;5.25;1.83;;;;;;;13.77;47.39;99800.59;4969611;28;124281;-63
2022/02/14 02:08:21;;;;;;;8.85;1.73;;;;;;;13.74;47.37;99807.97;4985662;28;114745;-63
2022/02/14 02:10:49;;;;;;;4.60;1.52;;;;;;;13.70;47.37;99799.38;4970083;28;115002;-63
2022/02/14 02:13:17;;;;;;;6.75;1.90;;;;;;;13.66;47.54;99787.25;5002143;28;123601;-63
2022/02/14 02:15:44;;;;;;;5.18;2.00;;;;;;;13.63;47.70;99787.47;4988136;28;123955;-63
2022/02/14 02:18:11;;;;;;;4.03;1.75;;;;;;;13.61;47.52;99778.78;4988105;28;114978;-66
2022/02/14 02:20:38;;;;;;;3.20;1.48;;;;;;;13.57;47.68;99777.31;4989505;28;113968;-66
2022/02/14 02:23:06;;;;;;;5.80;1.95;;;;;;;13.57;47.58;99777.31;4987772;28;124684;-66
2022/02/14 02:25:33;;;;;;;3.47;1.73;;;;;;;13.55;47.75;99771.25;4990448;28;123988;-66
2022/02/14 02:28:00;;;;;;;6.35;1.42;;;;;;;13.54;47.67;99762.44;4987927;28;114095;-66
2022/02/14 02:30:29;;;;;;;5.35;1.65;;;;;;;13.55;47.86;99757.94;4988096;28;114009;-66
2022/02/14 02:32:56;;;;;;;5.35;1.88;;;;;;;13.55;47.68;99748.16;4988548;28;125155;-66
2022/02/14 02:35:23;;;;;;;5.03;1.45;;;;;;;13.57;47.88;99756.88;4987508;28;124020;-66
2022/02/14 02:37:51;;;;;;;5.38;1.50;;;;;;;13.60;47.87;99755.81;4987761;28;114122;-66
2022/02/14 02:40:18;;;;;;;2.65;1.27;;;;;;;13.63;47.85;99744.91;4988752;28;114048;-65
2022/02/14 02:42:45;;;;;;;6.85;1.52;;;;;;;13.65;47.90;99742.97;4987272;28;123893;-66
2022/02/14 02:45:12;;;;;;;5.88;1.30;;;;;;;13.69;47.90;99744.44;4988210;28;123785;-66
2022/02/14 02:47:40;;;;;;;4.35;1.10;;;;;;;13.72;47.90;99733.56;4991111;28;114188;-66
2022/02/14 02:50:08;;;;;;;4.20;1.58;;;;;;;13.76;47.67;99734.19;4990802;28;113783;-66
2022/02/14 02:52:35;;;;;;;3.90;1.83;;;;;;;13.80;47.78;99739.16;4991491;28;124534;-66
2022/02/14 02:55:03;;;;;;;2.72;1.50;;;;;;;13.82;47.59;99723.94;4990341;28;124136;-66
2022/02/14 02:57:31;;;;;;;4.57;1.60;;;;;;;13.87;47.55;99725.41;4990435;28;115465;-66
2022/02/14 02:59:58;;;;;;;4.50;1.40;;;;;;;13.90;47.55;99719.81;4990319;28;114918;-66
2022/02/14 03:02:26;;;;;;;4.45;1.50;;;;;;;13.91;47.34;99710.88;4991981;28;124058;-66
2022/02/14 03:04:53;;;;;;;8.20;1.73;;;;;;;13.94;47.56;99715.97;4992787;28;123886;-66
2022/02/14 03:07:21;;;;;;;3.28;1.30;;;;;;;13.97;47.53;99710.41;4990695;28;114656;-66
2022/02/14 03:09:48;;;;;;;2.00;1.30;;;;;;;14.01;47.51;99714.50;4972377;28;114064;-66
2022/02/14 03:12:19;;;;;;;3.33;1.70;;;;;;;14.04;47.31;99703.63;4971769;28;124800;-66
2022/02/14 03:14:48;;;;;;;3.00;1.50;;;;;;;14.06;47.44;99699.03;4972810;28;124107;-66
2022/02/14 03:17:16;;;;;;;3.92;1.70;;;;;;;14.08;47.40;99690.94;4972785;28;114657;-66
2022/02/14 03:19:44;;;;;;;3.50;1.70;;;;;;;14.09;47.11;99698.81;4971381;28;114701;-66
2022/02/14 03:22:12;;;;;;;6.63;1.67;;;;;;;14.10;47.27;99695.16;4985543;28;124144;-66
2022/02/14 03:24:40;;;;;;;6.18;1.52;;;;;;;14.11;47.32;99691.53;4970465;28;125113;-66
2022/02/14 03:27:07;;;;;;;2.42;1.40;;;;;;;14.13;47.26;99684.28;4973756;28;114364;-66
2022/02/14 03:29:34;;;;;;;3.22;1.58;;;;;;;14.14;47.24;99688.63;4988853;28;113265;-66
2022/02/14 03:32:01;;;;;;;4.65;1.45;;;;;;;14.17;47.31;99682.22;4985099;28;124997;-66
2022/02/14 03:34:28;;;;;;;3.97;1.55;;;;;;;14.20;47.21;99669.53;4970063;28;124553;-66
2022/02/14 03:36:56;;;;;;;2.58;1.35;;;;;;;14.21;47.11;99668.53;4970397;28;114263;-66
2022/02/14 03:39:23;;;;;;;3.17;1.40;;;;;;;14.21;47.08;99671.19;4971960;28;113822;-66
2022/02/14 03:41:50;;;;;;;3.83;1.63;;;;;;;14.23;46.93;99662.25;4969292;28;124146;-66
2022/02/14 03:44:17;;;;;;;4.03;1.73;;;;;;;14.25;47.10;99655.81;4972348;28;123890;-66
2022/02/14 03:46:44;;;;;;;3.95;1.35;;;;;;;14.27;46.97;99661.03;4970020;28;115994;-66
2022/02/14 03:49:12;;;;;;;3.00;1.10;;;;;;;14.26;47.04;99667.31;4970454;28;114684;-66
2022/02/14 03:51:39;;;;;;;3.42;1.40;;;;;;;14.28;46.95;99662.72;4970381;28;123837;-66
2022/02/14 03:54:06;;;;;;;3.20;1.40;;;;;;;14.29;46.95;99651.94;4972823;28;123796;-66
2022/02/14 03:56:36;;;;;;;2.97;1.25;;;;;;;14.30;46.98;99647.50;4970134;28;114471;-66
2022/02/14 03:59:03;;;;;;;5.22;1.35;;;;;;;14.31;47.01;99649.16;4970402;28;115350;-66
2022/02/14 04:01:30;;;;;;;2.88;1.27;;;;;;;14.32;46.97;99642.88;4969145;28;124690;-66
2022/02/14 04:03:57;;;;;;;3.33;1.60;;;;;;;14.34;46.94;99654.25;4972681;28;124226;-66
2022/02/14 04:06:25;;;;;;;3.38;1.23;;;;;;;14.35;46.89;99642.63;4987931;28;113535;-66
2022/02/14 04:08:52;;;;;;;5.35;1.33;;;;;;;14.35;46.88;99646.16;4969972;28;114070;-66
2022/02/14 04:11:19;;;;;;;7.63;1.60;;;;;;;14.36;46.86;99631.00;4970151;28;123376;-66
2022/02/14 04:13:46;;;;;;;5.30;1.52;;;;;;;14.38;46.91;99639.72;4972438;28;124834;-66
2022/02/14 04:16:13;;;;;;;3.28;1.30;;;;;;;14.38;46.77;99634.38;4987444;28;113276;-66
2022/02/14 04:18:40;;;;;;;5.40;1.15;;;;;;;14.40;46.74;99632.44;4970569;28;114119;-66
2022/02/14 04:21:09;;;;;;;3.50;1.20;;;;;;;14.39;46.80;99625.41;4971762;28;124043;-66
2022/02/14 04:23:36;;;;;;;7.72;1.40;;;;;;;14.40;46.74;99637.78;4971635;28;123729;-66
2022/02/14 04:26:03;;;;;;;3.15;1.33;;;;;;;14.39;46.67;99636.06;4972114;28;114573;-66
2022/02/14 04:28:30;;;;;;;3.08;1.10;;;;;;;14.40;46.64;99632.44;4972386;28;114041;-66
2022/02/14 04:30:57;;;;;;;2.78;1.30;;;;;;;14.40;46.70;99643.09;4968689;28;123822;-66
2022/02/14 04:33:25;;;;;;;2.75;1.13;;;;;;;14.41;46.78;99640.31;4971470;28;123978;-66
2022/02/14 04:35:52;;;;;;;3.13;1.52;;;;;;;14.42;46.72;99641.16;4970738;28;114177;-66
2022/02/14 04:38:19;;;;;;;3.22;1.13;;;;;;;14.41;46.70;99639.47;4987369;28;113702;-66
2022/02/14 04:40:46;;;;;;;3.20;1.05;;;;;;;14.41;46.82;99645.66;4970873;28;124013;-66
2022/02/14 04:43:16;;;;;;;3.53;1.30;;;;;;;14.41;46.70;99634.16;4971668;28;124353;-66
2022/02/14 04:45:43;;;;;;;3.13;1.40;;;;;;;14.41;46.65;99639.47;4970313;28;114204;-66
2022/02/14 04:48:10;;;;;;;2.03;1.08;;;;;;;14.40;46.58;99640.44;4970468;28;113670;-66
2022/02/14 04:50:37;;;;;;;3.00;1.30;;;;;;;14.40;46.59;99633.28;4987157;28;123215;-66
2022/02/14 04:53:05;;;;;;;2.00;1.20;;;;;;;14.41;46.58;99628.81;4971234;28;123897;-66
2022/02/14 04:55:32;;;;;;;5.30;1.20;;;;;;;14.40;46.49;99632.44;4972010;28;114029;-66
2022/02/14 04:57:59;;;;;;;4.80;1.50;;;;;;;14.40;46.64;99627.13;4969550;28;114042;-66
2022/02/14 05:00:26;;;;;;;4.20;1.65;;;;;;;14.41;46.54;99634.16;4986148;28;123441;-66
2022/02/14 05:02:53;;;;;;;2.72;1.10;;;;;;;14.41;46.59;99636.81;4970317;28;124594;-66
2022/02/14 05:05:20;;;;;;;3.42;1.05;;;;;;;14.43;46.69;99636.66;4971232;28;114243;-66
2022/02/14 05:07:50;;;;;;;3.03;1.30;;;;;;;14.43;46.82;99620.69;4970698;28;114262;-66
2022/02/14 05:10:19;;;;;;;3.40;1.20;;;;;;;14.44;46.74;99622.41;4970476;28;124614;-66
2022/02/14 05:12:46;;;;;;;2.42;1.27;;;;;;;14.46;46.63;99626.63;4969860;28;123944;-67
2022/02/14 05:15:14;;;;;;;3.03;1.27;;;;;;;14.47;46.60;99611.50;4970267;28;114972;-66
2022/02/14 05:17:41;;;;;;;4.35;1.38;;;;;;;14.47;46.62;99617.66;4969543;28;113892;-66
2022/02/14 05:20:08;;;;;;;3.80;1.00;;;;;;;14.47;46.68;99612.34;4969664;28;124336;-66
2022/02/14 05:22:36;;;;;;;3.83;1.30;;;;;;;14.48;46.68;99619.34;4986489;28;122888;-66
2022/02/14 05:25:03;;;;;;;3.28;1.00;;;;;;;14.48;46.76;99614.00;4968295;28;115375;-66
2022/02/14 05:27:31;;;;;;;2.92;1.50;;;;;;;14.47;46.59;99612.34;4968873;28;114798;-66
2022/02/14 05:29:58;;;;;;;2.67;1.10;;;;;;;14.48;46.72;99624.66;4968129;28;124857;-66
2022/02/14 05:32:25;;;;;;;2.65;1.30;;;;;;;14.46;46.63;99623.94;4969286;28;124471;-66
2022/02/14 05:34:52;;;;;;;3.47;1.30;;;;;;;14.45;46.72;99613.41;4971251;28;114673;-66
2022/02/14 05:37:19;;;;;;;4.75;1.10;;;;;;;14.45;46.67;99614.28;4986612;28;113407;-66
2022/02/14 05:39:47;;;;;;;3.00;0.93;;;;;;;14.44;46.61;99612.56;4968225;28;123965;-66
2022/02/14 05:42:16;;;;;;;2.60;1.10;;;;;;;14.44;46.64;99617.06;4969661;28;125515;-66
2022/02/14 05:44:43;;;;;;;2.95;1.15;;;;;;;14.44;46.63;99609.91;4970128;28;114929;-66
2022/02/14 05:47:11;;;;;;;2.80;1.30;;;;;;;14.44;46.79;99612.56;4970560;28;113799;-66
2022/02/14 05:49:38;;;;;;;2.60;1.10;;;;;;;14.45;46.70;99608.09;4970687;28;123493;-66
2022/02/14 05:52:06;;;;;;;2.55;1.33;;;;;;;14.45;46.68;99619.63;4970705;28;123946;-66
2022/02/14 05:54:33;;;;;;;2.47;1.00;;;;;;;14.44;46.70;99612.56;4967090;28;114429;-66
2022/02/14 05:57:00;;;;;;;3.17;1.20;;;;;;;14.45;46.64;99614.28;4969520;28;114020;-66
2022/02/14 05:59:28;;;;;;;2.05;1.02;;;;;;;14.43;46.91;99610.91;4969804;28;124041;-66
2022/02/14 06:01:55;;;;;;;3.75;1.00;;;;;;;14.44;46.88;99612.56;4967571;28;123627;-66
2022/02/14 06:04:22;;;;;;;3.38;1.45;;;;;;;14.43;46.89;99604.69;4968425;28;114720;-66
2022/02/14 06:06:50;;;;;;;5.30;1.30;;;;;;;14.42;46.92;99614.53;4969344;28;114536;-66
2022/02/14 06:09:17;;;;;;;4.35;1.08;;;;;;;14.41;46.84;99607.53;4968978;28;124616;-66
2022/02/14 06:11:44;;;;;;;4.43;1.23;;;;;;;14.40;47.00;99601.31;4982293;28;123982;-66
2022/02/14 06:14:11;;;;;;;4.00;1.15;;;;;;;14.41;47.06;99607.53;4969844;28;115182;-66
2022/02/14 06:16:38;;;;;;;2.55;1.10;;;;;;;14.43;47.07;99618.88;4983274;28;114773;-66
2022/02/14 06:19:05;;;;;;;3.25;1.20;;;;;;;14.43;47.03;99621.56;4969795;28;123130;-66
2022/02/14 06:21:33;;;;;;;3.15;1.10;;;;;;;14.45;47.03;99619.63;4971432;28;123996;-66
2022/02/14 06:24:00;;;;;;;3.78;1.48;;;;;;;14.45;47.10;99630.28;4974407;28;114328;-66
2022/02/14 06:26:32;;;;;;;2.30;1.20;;;;;;;14.46;47.22;99637.28;4971629;28;114276;-66
2022/02/14 06:29:00;;;;;;;2.25;1.20;;;;;;;14.47;47.26;99633.66;4973622;28;124235;-66
2022/02/14 06:31:27;;;;;;;3.85;1.40;;;;;;;14.47;47.28;99623.00;4988657;28;123525;-66
2022/02/14 06:33:56;;;;;;;3.67;1.30;;;;;;;14.48;47.24;99635.31;4974242;28;114062;-66
2022/02/14 06:36:26;;;;;;;2.20;1.20;;;;;;;14.48;47.44;99630.00;4972447;28;113790;-66
2022/02/14 06:38:54;;;;;;;2.65;1.20;;;;;;;14.49;47.37;99637.03;4970351;28;124478;-66
2022/02/14 06:41:23;;;;;;;4.82;1.40;;;;;;;14.51;47.36;99640.41;4971873;28;123898;-66
2022/02/14 06:43:52;;;;;;;2.22;1.38;;;;;;;14.51;47.40;99640.41;4973082;28;114329;-67
2022/02/14 06:46:19;;;;;;;2.40;1.30;;;;;;;14.53;47.41;99646.47;4985730;28;114254;-67
2022/02/14 06:48:49;;;;;;;2.67;1.40;;;;;;;14.54;47.45;99642.84;4970347;28;125294;-66
2022/02/14 06:51:19;;;;;;;2.47;1.48;;;;;;;14.56;47.43;99638.25;4969516;28;123931;-66
2022/02/14 06:53:47;;;;;;;2.42;1.20;;;;;;;14.57;47.54;99637.28;4973261;28;113641;-66
2022/02/14 06:56:14;;;;;;;2.28;1.17;;;;;;;14.57;47.57;99645.28;4973308;28;113964;-66
2022/02/14 06:58:42;;;;;;;2.88;1.20;;;;;;;14.57;47.56;99650.59;4973010;28;125539;-66
2022/02/14 07:01:09;;;;;;;4.07;1.40;;;;;;;14.59;47.62;99648.66;4969121;28;124301;-65
2022/02/14 07:03:39;;;;;;;2.47;1.20;;;;;;;14.59;47.63;99648.66;4987451;28;115525;-67
2022/02/14 07:06:07;;;;;;;2.53;1.00;;;;;;;14.60;47.71;99655.69;4972343;28;115636;-66
2022/02/14 07:08:35;;;;;;;2.05;1.20;;;;;;;14.60;47.70;99666.34;4971040;28;124403;-66
2022/02/14 07:11:03;;;;;;;2.67;1.20;;;;;;;14.63;47.71;99664.41;4972661;28;124436;-66
2022/02/14 07:13:30;;;;;;;2.17;1.00;;;;;;;14.63;47.84;99675.91;4973260;28;115522;-66
2022/02/14 07:15:57;;;;;;;3.08;1.30;;;;;;;14.64;47.73;99668.78;4971345;28;113944;-67
2022/02/14 07:18:25;;;;;;;3.00;1.30;;;;;;;14.65;47.76;99675.78;4970894;28;123845;-66
2022/02/14 07:20:52;;;;;;;3.33;1.20;;;;;;;14.66;47.88;99672.16;4973190;28;124035;-66
2022/02/14 07:23:20;;;;;;;2.40;1.30;;;;;;;14.66;47.93;99677.50;4973109;28;114316;-66
2022/02/14 07:25:48;;;;;;;3.03;1.30;;;;;;;14.67;48.02;99681.84;4971343;28;114902;-66
2022/02/14 07:28:15;;;;;;;1.98;1.02;;;;;;;14.68;48.08;99688.88;4988351;28;122782;-66
2022/02/14 07:30:42;;;;;;;2.65;1.20;;;;;;;14.69;48.11;99695.88;4969559;28;124283;-66
2022/02/14 07:33:10;;;;;;;3.33;1.10;;;;;;;14.69;47.98;99690.56;4972461;28;114427;-66
2022/02/14 07:35:37;;;;;;;2.67;1.20;;;;;;;14.70;48.07;99686.94;4973356;28;114223;-65
2022/02/14 07:38:08;;;;;;;3.22;1.08;;;;;;;14.71;48.07;99693.94;4988416;28;123696;-66
2022/02/14 07:40:37;;;;;;;1.83;1.00;;;;;;;14.72;48.39;99690.31;4969963;28;124016;-66
2022/02/14 07:43:04;;;;;;;1.95;0.95;;;;;;;14.72;48.05;99695.66;4972319;28;115066;-66
2022/02/14 07:45:31;;;;;;;3.28;1.23;;;;;;;14.73;48.18;99697.31;4971161;28;114630;-66
2022/02/14 07:47:59;;;;;;;2.13;1.23;;;;;;;14.72;48.32;99695.66;4972313;28;124200;-65
2022/02/14 07:50:27;;;;;;;2.70;1.20;;;;;;;14.70;48.33;99697.59;4972108;28;123660;-66
2022/02/14 07:52:54;;;;;;;3.35;1.30;;;;;;;14.70;48.33;99708.25;4972585;28;115699;-66
2022/02/14 07:55:21;;;;;;;2.15;0.98;;;;;;;14.69;48.57;99706.53;4970661;28;115204;-66
2022/02/14 07:57:49;;;;;;;2.22;1.10;;;;;;;14.69;48.44;99706.53;4988223;28;123281;-66
2022/02/14 08:00:17;;;;;;;2.30;1.00;;;;;;;14.67;48.70;99717.31;4969792;28;124363;-66
2022/02/14 08:02:46;;;;;;;3.35;1.02;;;;;;;14.68;48.77;99715.53;4971543;28;115450;-66
2022/02/14 08:05:15;;;;;;;2.13;0.98;;;;;;;14.67;48.72;99713.81;4973302;28;114753;-67
2022/02/14 08:07:43;;;;;;;3.53;1.13;;;;;;;14.67;48.71;99716.50;4970619;28;124656;-65
2022/02/14 08:10:30;;;;;;;1.85;1.00;;;;;;;14.67;48.98;99719.16;4987827;28;122711;-66
2022/02/14 08:12:57;;;;;;;4.10;1.15;;;;;;;14.66;49.05;99733.47;4971599;28;114341;-66
2022/02/14 08:15:24;;;;;;;2.15;1.15;;;;;;;14.67;49.08;99729.81;4970329;28;113873;-65
2022/02/14 08:17:52;;;;;;;3.70;1.10;;;;;;;14.68;49.17;99731.53;4987354;28;122872;-66
2022/02/14 08:20:20;;;;;;;2.15;0.90;;;;;;;14.69;49.21;99739.41;4971089;28;123916;-66
2022/02/14 08:22:47;;;;;;;2.65;1.00;;;;;;;14.71;49.24;99725.94;4986437;28;114031;-65
2022/02/14 08:25:14;;;;;;;2.50;0.90;;;;;;;14.71;49.26;99741.91;4971920;28;114313;-65
2022/02/14 08:27:43;;;;;;;3.00;1.08;;;;;;;14.72;49.21;99739.13;4987349;28;122894;-65
2022/02/14 08:30:10;;;;;;;1.90;0.90;;;;;;;14.71;49.51;99757.91;4971632;28;124367;-66
2022/02/14 08:32:39;;;;;;;2.28;0.90;;;;;;;14.72;49.51;99775.59;4970589;28;115123;-66
2022/02/14 08:35:07;;;;;;;2.05;1.00;;;;;;;14.69;49.63;99781.16;4971281;28;114307;-65
2022/02/14 08:37:34;;;;;;;1.50;1.00;;;;;;;14.66;49.75;99787.59;4969781;28;123941;-66
2022/02/14 08:40:02;;;;;;;3.47;1.13;;;;;;;14.62;49.92;99795.94;4968809;28;123881;-66
2022/02/14 08:42:29;;;;;;;1.33;0.90;;;;;;;14.55;49.99;99801.72;4970733;28;116371;-66
2022/02/14 08:44:56;;;;;;;1.20;0.80;;;;;;;14.51;50.06;99799.44;4972787;28;116001;-66
2022/02/14 08:47:23;;;;;;;1.77;0.73;;;;;;;14.44;50.33;99799.06;4969545;28;124370;-65
2022/02/14 08:49:51;;;;;;;2.33;0.80;;;;;;;14.41;50.51;99804.66;4969945;28;124387;-66
2022/02/14 08:52:20;;;;;;;1.05;0.70;;;;;;;14.36;50.62;99812.97;4987704;28;113362;-66
2022/02/14 08:54:48;;;;;;;1.20;0.60;;;;;;;14.34;50.77;99814.06;4987981;28;112979;-65
2022/02/14 08:57:15;;;;;;;1.00;0.60;;;;;;;14.30;50.96;99813.47;4972064;28;124175;-65
2022/02/14 08:59:43;;;;;;;1.85;0.60;;;;;;;14.28;50.93;99825.19;4969100;28;125113;-65
2022/02/14 09:02:10;;;;;;;2.35;0.70;;;;;;;14.27;50.89;99823.50;4970172;28;115467;-66
2022/02/14 09:04:37;;;;;;;1.60;0.63;;;;;;;14.25;51.12;99836.09;4969645;28;114378;-65
2022/02/14 09:07:04;;;;;;;1.42;0.80;;;;;;;14.24;51.14;99829.06;4968764;28;124467;-66
2022/02/14 09:09:32;;;;;;;1.10;0.60;;;;;;;14.20;51.27;99842.63;4971549;28;124104;-66
2022/02/14 09:12:00;;;;;;;2.70;0.90;;;;;;;14.21;51.34;99836.31;4967358;28;114117;-66
2022/02/14 09:14:28;;;;;;;2.97;1.15;;;;;;;14.23;51.47;99851.34;4969529;28;114383;-66
2022/02/14 09:16:55;;;;;;;1.20;0.68;;;;;;;14.24;51.66;99853.88;4970475;28;123995;-65
2022/02/14 09:19:23;;;;;;;1.95;0.75;;;;;;;14.24;51.73;99867.22;4969423;28;123785;-66
2022/02/14 09:21:50;;;;;;;1.85;0.90;;;;;;;14.24;51.97;99871.66;4987088;28;113626;-65
2022/02/14 09:24:17;;;;;;;1.35;0.50;;;;;;;14.18;52.00;99876.50;4972138;28;114014;-65
2022/02/14 09:26:45;;;;;;;1.67;0.90;;;;;;;14.13;52.09;99881.31;4968951;28;124102;-65
2022/02/14 09:29:14;;;;;;;1.05;0.60;;;;;;;14.09;52.24;99890.50;4986865;28;122616;-66
2022/02/14 09:31:42;;;;;;;1.17;0.70;;;;;;;14.04;52.62;99895.31;4968007;28;115264;-66
2022/02/14 09:34:10;;;;;;;1.73;0.90;;;;;;;13.98;52.53;99898.47;4967854;28;114880;-66
2022/02/14 09:36:37;;;;;;;3.03;1.00;;;;;;;13.96;52.55;99905.72;4968949;28;123965;-65
2022/02/14 09:39:08;;;;;;;1.83;0.90;;;;;;;13.91;52.55;99907.84;4983518;28;123978;-65
2022/02/14 09:41:37;;;;;;;1.50;0.80;;;;;;;13.85;52.71;99908.31;4967139;28;114134;-65
2022/02/14 09:44:05;;;;;;;1.35;0.98;;;;;;;13.81;52.68;99919.19;4971965;28;113709;-66
2022/02/14 09:46:39;;;;;;;2.25;0.90;;;;;;;13.74;52.70;99907.28;4986906;28;123207;-66
2022/02/14 09:49:07;;;;;;;1.35;0.75;;;;;;;13.70;52.83;99905.81;4968887;28;123580;-66
2022/02/14 09:51:36;;;;;;;1.33;0.70;;;;;;;13.66;52.95;99909.66;4986430;28;113294;-65
2022/02/14 09:54:05;;;;;;;0.90;0.70;;;;;;;13.64;53.19;99916.91;4953484;28;112950;-65
2022/02/14 09:56:35;;;;;;;0.90;0.70;;;;;;;13.64;53.13;99935.53;4969243;28;123850;-66
2022/02/14 09:59:05;;;;;;;1.27;0.85;;;;;;;13.63;53.20;99933.81;4970120;28;123618;-66
2022/02/14 10:01:32;;;;;;;1.92;0.80;;;;;;;13.64;53.34;99922.22;4968321;28;114219;-66
2022/02/14 10:04:00;;;;;;;1.40;0.80;;;;;;;13.62;53.18;99940.97;4971559;28;114534;-65
2022/02/14 10:06:39;;;;;;;1.70;0.80;;;;;;;13.64;53.26;99943.50;4968481;28;124007;-65
2022/02/14 10:09:11;;;;;;;1.10;0.70;;;;;;;13.67;53.37;99937.94;4969646;28;123716;-65
2022/02/14 10:12:08;;;;;;;1.25;0.73;;;;;;;13.69;53.21;99952.00;4968177;28;114656;-66
2022/02/14 10:14:36;;;;;;;1.33;0.73;;;;;;;13.73;53.17;99948.19;4972211;28;113628;-65
2022/02/14 10:17:18;;;;;;;1.85;0.85;;;;;;;13.76;53.24;99952.41;4968241;28;124353;-66
2022/02/14 10:20:00;;;;;;;1.85;1.00;;;;;;;13.81;53.21;99945.78;4968587;28;126570;-65
2022/02/14 10:22:27;;;;;;;1.45;1.00;;;;;;;13.85;53.20;99945.56;4968749;28;115165;-65
2022/02/14 10:24:54;;;;;;;2.22;1.00;;;;;;;13.90;53.38;99951.38;4968282;28;115482;-66
2022/02/14 10:27:33;;;;;;;1.60;1.10;;;;;;;13.94;53.18;99955.56;4968352;28;123983;-65
2022/02/14 10:30:11;;;;;;;2.03;1.10;;;;;;;13.97;52.89;99963.28;4968819;28;125365;-66
2022/02/14 10:32:52;;;;;;;1.60;1.20;;;;;;;13.97;52.64;99971.28;4969488;28;115052;-65
2022/02/14 10:35:20;;;;;;;3.72;1.23;;;;;;;13.97;52.78;99976.59;4968420;28;114342;-65
2022/02/14 10:37:49;;;;;;;1.88;1.20;;;;;;;13.97;52.74;99976.59;4983581;28;124620;-66
2022/02/14 10:40:30;;;;;;;3.30;1.30;;;;;;;13.97;52.94;99976.59;4967766;28;124971;-65
2022/02/14 10:42:58;;;;;;;2.50;1.30;;;;;;;14.01;52.98;99983.41;4969743;28;114108;-65
2022/02/14 10:45:25;;;;;;;2.65;1.10;;;;;;;14.06;52.95;99986.59;4968349;28;114287;-66
2022/02/14 10:47:52;;;;;;;2.20;0.90;;;;;;;14.12;52.89;99991.44;4970509;28;124000;-65
2022/02/14 10:50:23;;;;;;;1.90;1.20;;;;;;;14.19;52.79;99982.06;4967946;28;123769;-65
2022/02/14 10:53:01;;;;;;;3.63;1.17;;;;;;;14.27;52.74;99993.97;4969539;28;114672;-65
2022/02/14 10:55:33;;;;;;;2.60;1.00;;;;;;;14.36;52.73;99995.94;4970160;28;113721;-66
2022/02/14 10:58:01;;;;;;;3.92;1.20;;;;;;;14.45;52.57;100011.25;4967689;28;124152;-65
2022/02/14 11:00:31;;;;;;;3.05;1.00;;;;;;;14.50;52.46;100006.41;4967169;28;123626;-66
2022/02/14 11:03:06;;;;;;;3.25;0.90;;;;;;;14.55;52.07;100008.72;4969446;28;113259;-65
2022/02/14 11:05:36;;;;;;;2.53;1.30;;;;;;;14.56;51.81;100015.75;4971344;28;113898;-65
2022/02/14 11:08:03;;;;;;;2.47;1.10;;;;;;;14.55;51.66;100014.91;4971176;28;124433;-65
2022/02/14 11:10:32;;;;;;;1.95;1.10;;;;;;;14.54;51.48;100029.22;4988417;28;123980;-66
2022/02/14 11:13:01;;;;;;;3.50;1.17;;;;;;;14.54;51.34;100033.66;4971850;28;115290;-65
2022/02/14 11:15:34;;;;;;;2.75;1.10;;;;;;;14.53;51.25;100032.81;4972044;28;114994;-65
2022/02/14 11:18:10;;;;;;;1.83;1.08;;;;;;;14.53;51.38;100043.47;4970853;28;124643;-65
2022/02/14 11:20:38;;;;;;;4.53;1.17;;;;;;;14.54;51.33;100045.19;4987534;28;122774;-66
2022/02/14 11:23:08;;;;;;;2.35;1.20;;;;;;;14.56;51.22;100037.94;4972548;28;114160;-65
2022/02/14 11:25:47;;;;;;;2.00;1.08;;;;;;;14.56;51.00;100048.59;4971766;28;114185;-65
2022/02/14 11:28:49;;;;;;;2.53;1.13;;;;;;;14.55;51.03;100046.03;4988695;28;123416;-65